createdAt,value
2023-05-09T00:03:59.862Z,61.92
2023-05-09T00:09:02.775Z,63.26
2023-05-09T00:14:05.766Z,63.17
2023-05-09T00:19:08.698Z,63.10
2023-05-09T00:24:11.543Z,61.19
2023-05-09T00:29:14.406Z,60.59
2023-05-09T00:34:17.291Z,60.22
2023-05-09T00:39:21.206Z,60.24
2023-05-09T00:44:24.234Z,60.17
2023-05-09T00:49:27.486Z,60.53
2023-05-09T00:54:30.553Z,60.90
2023-05-09T00:59:33.435Z,60.81
2023-05-09T01:04:36.284Z,61.21
2023-05-09T01:09:59.639Z,60.81
2023-05-09T01:15:28.814Z,60.68
2023-05-09T01:20:51.997Z,60.94
2023-05-09T01:26:16.412Z,60.85
2023-05-09T01:31:20.363Z,61.35
2023-05-09T01:36:29.702Z,61.89
2023-05-09T01:41:37.693Z,62.40
2023-05-09T01:46:40.907Z,62.06
2023-05-09T01:51:45.312Z,62.26
2023-05-09T01:56:49.663Z,62.90
2023-05-09T02:01:55.264Z,63.28
2023-05-09T02:06:59.671Z,63.74
2023-05-09T02:12:04.631Z,63.60
2023-05-09T02:17:09.625Z,64.29
2023-05-09T02:22:13.437Z,64.57
2023-05-09T02:27:17.026Z,65.53
2023-05-09T02:32:25.838Z,69.77
2023-05-09T02:37:29.821Z,68.07
2023-05-09T02:42:32.678Z,67.17
2023-05-09T02:47:35.595Z,67.63
2023-05-09T02:52:38.602Z,67.47
2023-05-09T02:57:41.492Z,68.26
2023-05-09T03:02:44.412Z,68.66
2023-05-09T03:07:47.553Z,68.82
2023-05-09T03:12:50.458Z,69.47
2023-05-09T03:17:53.288Z,68.19
2023-05-09T03:22:56.218Z,67.24
2023-05-09T03:27:58.997Z,67.07
2023-05-09T03:33:01.957Z,67.37
2023-05-09T03:38:05.796Z,66.48
2023-05-09T03:43:08.757Z,66.25
2023-05-09T03:48:12.214Z,66.42
2023-05-09T03:53:15.274Z,66.01
2023-05-09T03:58:19.453Z,63.25
2023-05-09T04:03:22.514Z,63.06
2023-05-09T04:08:27.160Z,63.00
2023-05-09T04:13:31.057Z,64.48
2023-05-09T04:18:33.990Z,62.62
2023-05-09T04:23:36.987Z,60.78
2023-05-09T04:28:39.782Z,62.01
2023-05-09T04:33:42.621Z,62.66
2023-05-09T04:38:45.488Z,61.33
2023-05-09T04:43:48.341Z,59.81
2023-05-09T04:48:51.212Z,58.41
2023-05-09T04:53:54.072Z,57.54
2023-05-09T04:58:56.923Z,57.15
2023-05-09T05:03:59.858Z,55.10
2023-05-09T05:09:02.926Z,52.79
2023-05-09T05:14:05.809Z,51.84
2023-05-09T05:19:08.652Z,51.33
2023-05-09T05:24:11.551Z,51.17
2023-05-09T05:29:14.338Z,49.50
2023-05-09T05:34:17.345Z,49.43
2023-05-09T05:39:20.192Z,48.77
2023-05-09T05:44:23.043Z,48.69
2023-05-09T05:49:25.954Z,47.19
2023-05-09T05:54:28.747Z,46.53
2023-05-09T05:59:31.576Z,46.35
2023-05-09T06:04:34.449Z,45.65
2023-05-09T06:09:37.301Z,46.08
2023-05-09T06:14:40.138Z,45.56
2023-05-09T06:19:42.944Z,44.68
2023-05-09T06:24:45.878Z,43.52
2023-05-09T06:29:48.785Z,43.08
2023-05-09T06:34:52.678Z,42.29
2023-05-09T06:39:55.554Z,42.26
2023-05-09T06:44:58.510Z,41.96
2023-05-09T06:50:01.414Z,40.42
2023-05-09T06:55:05.236Z,40.03
2023-05-09T07:00:09.578Z,39.58
2023-05-09T07:05:12.693Z,40.61
2023-05-09T07:10:15.864Z,38.81
2023-05-09T07:15:28.803Z,36.96
2023-05-09T07:20:39.974Z,36.15
2023-05-09T07:25:43.925Z,35.92
2023-05-09T07:30:48.060Z,34.90
2023-05-09T07:35:53.030Z,33.58
2023-05-09T07:40:56.021Z,32.70
2023-05-09T07:45:58.961Z,33.62
2023-05-09T07:51:01.958Z,31.95
2023-05-09T07:56:06.814Z,32.17
2023-05-09T08:01:09.789Z,31.17
2023-05-09T08:06:12.755Z,30.88
2023-05-09T08:11:15.550Z,30.42
2023-05-09T08:16:18.446Z,29.57
2023-05-09T08:21:22.449Z,27.15
2023-05-09T08:26:26.736Z,27.58
2023-05-09T08:31:29.705Z,28.63
2023-05-09T08:36:32.637Z,28.46
2023-05-09T08:41:36.277Z,28.36
2023-05-09T08:46:44.308Z,28.59
2023-05-09T08:51:48.450Z,28.44
2023-05-09T08:56:51.870Z,27.78
2023-05-09T09:01:55.395Z,27.34
2023-05-09T09:06:59.769Z,27.01
2023-05-09T09:12:09.813Z,26.77
2023-05-09T09:17:20.703Z,26.30
2023-05-09T09:22:25.072Z,26.36
2023-05-09T09:27:28.813Z,26.51
2023-05-09T09:32:35.798Z,26.14
2023-05-09T09:37:41.722Z,25.63
2023-05-09T09:42:48.075Z,25.36
2023-05-09T09:47:51.183Z,25.66
2023-05-09T09:52:56.611Z,25.52
2023-05-09T09:57:59.618Z,25.76
2023-05-09T10:03:02.574Z,25.88
2023-05-09T10:08:07.655Z,25.06
2023-05-09T10:13:12.490Z,24.89
2023-05-09T10:18:20.309Z,25.04
2023-05-09T10:23:24.785Z,25.03
2023-05-09T10:28:34.606Z,24.81
2023-05-09T10:33:49.463Z,25.17
2023-05-09T10:38:55.261Z,25.04
2023-05-09T10:43:59.771Z,24.62
2023-05-09T10:49:04.040Z,24.42
2023-05-09T10:54:33.462Z,23.96
2023-05-09T10:59:40.748Z,24.07
2023-05-09T11:04:44.893Z,23.80
2023-05-09T11:09:52.678Z,23.40
2023-05-09T11:15:07.530Z,23.82
2023-05-09T11:20:10.916Z,23.93
2023-05-09T11:25:15.479Z,23.81
2023-05-09T11:30:20.669Z,23.67
2023-05-09T11:35:26.851Z,23.80
2023-05-09T11:40:31.434Z,23.56
2023-05-09T11:45:34.404Z,23.72
2023-05-09T11:50:37.421Z,23.84
2023-05-09T11:55:41.358Z,23.97
2023-05-09T12:00:46.329Z,24.13
2023-05-09T12:05:49.365Z,24.11
2023-05-09T12:10:52.303Z,23.91
2023-05-09T12:16:01.988Z,23.63
2023-05-09T12:21:07.198Z,23.96
2023-05-09T12:26:11.050Z,24.39
2023-05-09T12:31:14.220Z,24.39
2023-05-09T12:36:17.187Z,23.80
2023-05-09T12:41:34.929Z,23.99
2023-05-09T12:46:40.227Z,24.08
2023-05-09T12:51:50.613Z,24.00
2023-05-09T12:56:58.480Z,24.33
2023-05-09T13:02:02.042Z,24.28
2023-05-09T13:07:10.545Z,24.29
2023-05-09T13:12:15.613Z,24.16
2023-05-09T13:17:18.524Z,23.92
2023-05-09T13:22:21.493Z,23.93
2023-05-09T13:27:25.325Z,23.97
2023-05-09T13:32:30.281Z,23.53
2023-05-09T13:37:36.208Z,23.92
2023-05-09T13:42:39.809Z,23.60
2023-05-09T13:47:42.828Z,23.54
2023-05-09T13:52:46.003Z,23.28
2023-05-09T13:57:48.970Z,23.56
2023-05-09T14:02:52.812Z,23.50
2023-05-09T14:07:55.934Z,22.98
2023-05-09T14:12:59.647Z,23.18
2023-05-09T14:18:03.134Z,23.06
2023-05-09T14:23:07.184Z,23.36
2023-05-09T14:28:10.910Z,22.99
2023-05-09T14:33:14.539Z,23.50
2023-05-09T14:38:18.360Z,23.48
2023-05-09T14:43:22.357Z,23.63
2023-05-09T14:48:25.430Z,23.69
2023-05-09T14:53:29.090Z,23.57
2023-05-09T14:58:34.345Z,23.58
2023-05-09T15:03:39.579Z,23.64
2023-05-09T15:08:42.630Z,23.22
2023-05-09T15:13:45.492Z,23.18
2023-05-09T15:18:48.522Z,23.50
2023-05-09T15:23:51.362Z,23.76
2023-05-09T15:28:54.268Z,23.50
2023-05-09T15:33:57.106Z,23.65
2023-05-09T15:39:00.768Z,23.64
2023-05-09T15:44:03.668Z,23.60
2023-05-09T15:49:06.859Z,23.87
2023-05-09T15:54:10.141Z,23.89
2023-05-09T15:59:13.298Z,24.02
2023-05-09T16:04:16.251Z,24.22
2023-05-09T16:09:19.524Z,24.20
2023-05-09T16:14:22.625Z,24.40
2023-05-09T16:19:26.516Z,24.30
2023-05-09T16:24:29.499Z,24.41
2023-05-09T16:29:32.329Z,24.57
2023-05-09T16:34:36.053Z,24.51
2023-05-09T16:39:39.037Z,24.80
2023-05-09T16:44:41.988Z,24.82
2023-05-09T16:49:44.876Z,24.94
2023-05-09T16:54:50.513Z,24.93
2023-05-09T16:59:53.942Z,25.00
2023-05-09T17:04:57.669Z,25.05
2023-05-09T17:10:00.578Z,25.23
2023-05-09T17:15:03.725Z,25.30
2023-05-09T17:20:09.463Z,25.33
2023-05-09T17:25:12.583Z,25.44
2023-05-09T17:30:16.040Z,25.59
2023-05-09T17:35:20.865Z,25.52
2023-05-09T17:40:24.095Z,25.48
2023-05-09T17:45:27.038Z,25.53
2023-05-09T17:50:30.941Z,25.75
2023-05-09T17:55:33.775Z,25.85
2023-05-09T18:00:36.701Z,25.99
2023-05-09T18:05:40.198Z,26.03
2023-05-09T18:10:43.574Z,26.26
2023-05-09T18:15:46.574Z,26.51
2023-05-09T18:20:49.597Z,26.75
2023-05-09T18:25:54.176Z,27.22
2023-05-09T18:31:01.371Z,27.39
2023-05-09T18:36:05.899Z,27.79
2023-05-09T18:41:11.462Z,28.25
2023-05-09T18:46:21.038Z,28.70
2023-05-09T18:51:25.566Z,29.53
2023-05-09T18:56:28.747Z,30.65
2023-05-09T19:01:32.369Z,31.36
2023-05-09T19:06:35.581Z,32.03
2023-05-09T19:11:38.647Z,32.72
2023-05-09T19:16:41.983Z,33.11
2023-05-09T19:27:05.906Z,33.65
2023-05-09T19:32:08.813Z,34.74
2023-05-09T19:37:11.786Z,35.22
2023-05-09T19:42:15.145Z,35.49
2023-05-09T19:47:19.790Z,36.22
2023-05-09T19:52:23.449Z,36.67
2023-05-09T19:57:26.297Z,37.37
2023-05-09T20:02:30.657Z,37.58
2023-05-09T20:07:33.853Z,37.21
2023-05-09T20:12:36.776Z,37.73
2023-05-09T20:17:39.610Z,38.20
2023-05-09T20:22:42.923Z,39.13
2023-05-09T20:27:45.915Z,41.39
2023-05-09T20:32:48.964Z,42.94
2023-05-09T20:37:51.880Z,46.10
2023-05-09T20:42:54.801Z,48.12
2023-05-09T20:48:01.740Z,47.76
2023-05-09T20:53:07.032Z,46.94
2023-05-09T20:58:10.264Z,48.28
2023-05-09T21:03:14.142Z,51.22
2023-05-09T21:08:17.103Z,52.19
2023-05-09T21:13:20.209Z,52.96
2023-05-09T21:18:23.357Z,52.29
2023-05-09T21:23:26.236Z,51.54
2023-05-09T21:28:30.098Z,51.72
2023-05-09T21:33:32.912Z,53.37
2023-05-09T21:38:35.713Z,53.81
2023-05-09T21:43:38.715Z,54.72
2023-05-09T21:48:41.589Z,56.88
2023-05-09T21:53:44.423Z,56.27
2023-05-09T21:58:47.278Z,57.08
2023-05-09T22:03:50.240Z,57.34
2023-05-09T22:08:53.417Z,57.99
2023-05-09T22:13:56.464Z,58.19
2023-05-09T22:18:59.223Z,58.67
2023-05-09T22:24:02.116Z,58.29
2023-05-09T22:29:05.009Z,56.70
2023-05-09T22:34:07.875Z,55.83
2023-05-09T22:39:11.171Z,55.60
2023-05-09T22:44:14.257Z,57.26
2023-05-09T22:49:17.557Z,58.76
2023-05-09T22:54:22.344Z,57.78
2023-05-09T22:59:25.343Z,56.31
2023-05-09T23:04:28.348Z,55.45
2023-05-09T23:09:31.125Z,56.53
2023-05-09T23:14:33.952Z,60.28
2023-05-09T23:19:37.308Z,61.17
2023-05-09T23:24:40.146Z,62.42
2023-05-09T23:29:43.539Z,62.62
2023-05-09T23:34:46.370Z,62.54
2023-05-09T23:39:49.208Z,62.42
2023-05-09T23:44:52.096Z,62.91
2023-05-09T23:49:54.896Z,62.06
2023-05-09T23:54:57.816Z,61.78
